Terminal Aerodrome Forecast
Issued by NWS

Home | Current Version | Previous Version | Text Only | Print | Product List | Glossary On
Versions: 1 2 3 4 5 6 7 8 9 10 11 12 13 14 15 16
092
FTPA31 PHFO 242332
TAFHTO
TAF
PHTO 242332Z 2500/2524 08008KT P6SM SCT020 SCT050
     FM250600 VRB06KT P6SM SCT020 BKN040
     FM252000 08008KT P6SM SCT020 BKN040=

USA.gov is the U.S. government's official web portal to all federal, state and local government web resources and services.